createdAt,value
2019-02-27T00:00:54.303Z,26.57
2019-02-27T00:03:23.060Z,26.82
2019-02-27T00:05:51.585Z,27.45
2019-02-27T00:08:20.137Z,26.17
2019-02-27T00:10:48.695Z,26.30
2019-02-27T00:13:17.189Z,28.15
2019-02-27T00:15:48.245Z,26.73
2019-02-27T00:18:16.772Z,27.25
2019-02-27T00:20:45.878Z,25.50
2019-02-27T00:23:14.433Z,25.45
2019-02-27T00:25:42.894Z,26.35
2019-02-27T00:28:13.503Z,25.35
2019-02-27T00:30:42.179Z,25.52
2019-02-27T00:33:10.769Z,26.00
2019-02-27T00:35:39.680Z,26.20
2019-02-27T00:38:08.254Z,25.82
2019-02-27T00:40:39.401Z,26.50
2019-02-27T00:43:07.990Z,27.70
2019-02-27T00:45:39.689Z,26.33
2019-02-27T00:48:06.673Z,25.75
2019-02-27T00:50:38.896Z,28.02
2019-02-27T00:53:12.650Z,26.15
2019-02-27T00:55:41.129Z,27.95
2019-02-27T00:58:09.682Z,25.85
2019-02-27T01:00:39.285Z,29.72
2019-02-27T01:03:08.740Z,27.98
2019-02-27T01:05:40.980Z,28.73
2019-02-27T01:08:08.984Z,26.57
2019-02-27T01:10:38.330Z,27.90
2019-02-27T01:13:06.889Z,27.60
2019-02-27T01:15:35.346Z,29.05
2019-02-27T01:18:04.803Z,27.98
2019-02-27T01:20:38.211Z,28.12
2019-02-27T01:23:10.908Z,29.57
2019-02-27T01:25:38.573Z,29.90
2019-02-27T01:28:10.863Z,28.38
2019-02-27T01:30:37.341Z,28.62
2019-02-27T01:33:05.860Z,29.37
2019-02-27T01:35:34.321Z,29.87
2019-02-27T01:38:05.067Z,29.12
2019-02-27T01:40:33.045Z,28.83
2019-02-27T01:43:05.475Z,29.60
2019-02-27T01:45:31.699Z,28.50
2019-02-27T01:48:00.160Z,29.95
2019-02-27T01:50:36.601Z,29.45
2019-02-27T01:53:07.387Z,29.70
2019-02-27T01:55:37.089Z,30.32
2019-02-27T01:58:09.230Z,29.23
2019-02-27T02:00:36.160Z,28.10
2019-02-27T02:03:04.878Z,30.08
2019-02-27T02:05:33.462Z,30.82
2019-02-27T02:08:02.200Z,30.48
2019-02-27T02:10:30.748Z,30.65
2019-02-27T02:13:04.893Z,30.57
2019-02-27T02:15:45.475Z,30.43
2019-02-27T02:18:26.113Z,31.80
2019-02-27T02:21:09.906Z,31.90
2019-02-27T02:23:44.917Z,32.28
2019-02-27T02:26:35.031Z,32.13
2019-02-27T02:29:40.688Z,30.92
2019-02-27T02:32:30.421Z,32.10
2019-02-27T02:35:14.848Z,32.55
2019-02-27T02:38:04.429Z,31.97
2019-02-27T02:40:53.934Z,32.38
2019-02-27T02:43:42.000Z,32.73
2019-02-27T02:46:22.884Z,32.93
2019-02-27T02:49:09.461Z,31.95
2019-02-27T02:51:47.121Z,32.65
2019-02-27T02:54:36.296Z,31.95
2019-02-27T02:57:36.280Z,33.38
2019-02-27T03:00:15.433Z,32.38
2019-02-27T03:03:02.161Z,32.67
2019-02-27T03:05:33.784Z,32.60
2019-02-27T03:08:07.890Z,33.38
2019-02-27T03:10:47.780Z,32.48
2019-02-27T03:13:19.320Z,35.48
2019-02-27T03:16:04.268Z,34.50
2019-02-27T03:19:06.424Z,33.10
2019-02-27T03:21:46.925Z,32.20
2019-02-27T03:24:18.611Z,31.97
2019-02-27T03:27:11.474Z,34.38
2019-02-27T03:29:53.886Z,34.55
2019-02-27T03:32:41.147Z,34.18
2019-02-27T03:35:10.920Z,34.20
2019-02-27T03:37:49.392Z,35.98
2019-02-27T03:40:33.172Z,35.33
2019-02-27T03:43:28.577Z,35.03
2019-02-27T03:46:12.276Z,35.38
2019-02-27T03:49:03.739Z,32.70
2019-02-27T03:52:09.656Z,33.58
2019-02-27T03:54:48.481Z,34.13
2019-02-27T03:57:30.961Z,33.75
2019-02-27T04:00:19.141Z,32.23
2019-02-27T04:02:48.751Z,34.67
2019-02-27T04:05:25.980Z,34.53
2019-02-27T04:08:16.863Z,33.45
2019-02-27T04:10:46.240Z,32.53
2019-02-27T04:13:14.738Z,32.48
2019-02-27T04:15:44.242Z,34.27
2019-02-27T04:18:11.880Z,32.75
2019-02-27T04:20:40.648Z,33.95
2019-02-27T04:23:12.723Z,34.38
2019-02-27T04:25:41.453Z,34.80
2019-02-27T04:28:09.935Z,33.07
2019-02-27T04:30:39.620Z,33.13
2019-02-27T04:33:08.070Z,32.65
2019-02-27T04:35:39.251Z,33.10
2019-02-27T04:38:09.435Z,34.90
2019-02-27T04:40:39.212Z,33.75
2019-02-27T04:43:09.761Z,34.70
2019-02-27T04:45:38.290Z,35.15
2019-02-27T04:48:07.629Z,33.65
2019-02-27T04:50:36.927Z,34.25
2019-02-27T04:53:07.032Z,32.35
2019-02-27T04:55:35.569Z,34.92
2019-02-27T04:58:08.601Z,35.12
2019-02-27T05:00:35.009Z,35.45
2019-02-27T05:03:07.521Z,34.95
2019-02-27T05:05:36.124Z,33.90
2019-02-27T05:08:04.828Z,35.98
2019-02-27T05:10:33.914Z,35.52
2019-02-27T05:13:02.443Z,37.20
2019-02-27T05:15:32.526Z,35.73
2019-02-27T05:18:01.011Z,35.83
2019-02-27T05:20:29.767Z,34.95
2019-02-27T05:23:00.393Z,35.45
2019-02-27T05:25:28.530Z,36.63
2019-02-27T05:28:01.009Z,34.90
2019-02-27T05:30:27.598Z,35.15
2019-02-27T05:33:01.665Z,35.17
2019-02-27T05:35:28.600Z,34.58
2019-02-27T05:37:59.557Z,33.70
2019-02-27T05:40:29.554Z,35.25
2019-02-27T05:42:58.033Z,34.30
2019-02-27T05:45:30.405Z,34.95
2019-02-27T05:47:59.826Z,34.70
2019-02-27T05:50:28.391Z,35.28
2019-02-27T05:52:58.090Z,35.08
2019-02-27T05:55:27.659Z,37.30
2019-02-27T05:57:56.475Z,35.40
2019-02-27T06:00:25.065Z,34.33
2019-02-27T06:02:53.598Z,35.08
2019-02-27T06:05:22.106Z,34.65
2019-02-27T06:07:50.559Z,34.25
2019-02-27T06:10:20.898Z,34.10
2019-02-27T06:12:50.781Z,34.65
2019-02-27T06:15:19.610Z,33.73
2019-02-27T06:17:49.123Z,33.73
2019-02-27T06:20:18.338Z,34.33
2019-02-27T06:22:46.884Z,35.43
2019-02-27T06:25:23.185Z,34.50
2019-02-27T06:27:49.352Z,34.27
2019-02-27T06:30:21.318Z,34.00
2019-02-27T06:32:52.664Z,35.20
2019-02-27T06:35:22.448Z,35.83
2019-02-27T06:37:51.471Z,34.38
2019-02-27T06:40:25.393Z,34.83
2019-02-27T06:42:56.894Z,35.55
2019-02-27T06:45:25.464Z,33.48
2019-02-27T06:47:55.318Z,31.93
2019-02-27T06:50:25.498Z,32.50
2019-02-27T06:52:54.565Z,32.80
2019-02-27T06:55:25.470Z,32.80
2019-02-27T06:57:53.191Z,32.83
2019-02-27T07:00:24.958Z,33.57
2019-02-27T07:02:55.432Z,33.73
2019-02-27T07:05:23.753Z,33.13
2019-02-27T07:07:52.256Z,33.63
2019-02-27T07:10:20.804Z,31.65
2019-02-27T07:12:49.275Z,31.25
2019-02-27T07:15:22.511Z,30.70
2019-02-27T07:17:52.710Z,31.15
2019-02-27T07:20:23.960Z,31.07
2019-02-27T07:22:52.982Z,31.80
2019-02-27T07:25:25.005Z,31.27
2019-02-27T07:27:54.876Z,31.33
2019-02-27T07:30:23.980Z,30.80
2019-02-27T07:32:52.844Z,29.80
2019-02-27T07:35:25.564Z,29.95
2019-02-27T07:37:51.488Z,31.20
2019-02-27T07:40:20.750Z,30.20
2019-02-27T07:42:49.215Z,29.37
2019-02-27T07:45:24.688Z,29.63
2019-02-27T07:47:53.272Z,29.42
2019-02-27T07:50:22.305Z,29.85
2019-02-27T07:52:52.048Z,27.98
2019-02-27T07:55:22.886Z,27.73
2019-02-27T07:57:51.612Z,29.42
2019-02-27T08:00:26.213Z,27.93
2019-02-27T08:02:54.743Z,29.65
2019-02-27T08:05:28.286Z,28.57
2019-02-27T08:07:54.450Z,28.95
2019-02-27T08:10:24.231Z,27.93
2019-02-27T08:12:55.496Z,27.65
2019-02-27T08:15:25.594Z,29.18
2019-02-27T08:17:57.542Z,28.67
2019-02-27T08:20:26.317Z,28.15
2019-02-27T08:22:54.960Z,28.23
2019-02-27T08:25:23.422Z,26.95
2019-02-27T08:27:54.318Z,26.23
2019-02-27T08:30:25.130Z,27.48
2019-02-27T08:32:59.448Z,26.20
2019-02-27T08:35:28.550Z,25.32
2019-02-27T08:38:02.458Z,25.43
2019-02-27T08:40:29.256Z,26.57
2019-02-27T08:42:58.475Z,25.62
2019-02-27T08:45:27.782Z,26.07
2019-02-27T08:47:57.949Z,25.97
2019-02-27T08:50:29.266Z,26.77
2019-02-27T08:52:57.926Z,25.88
2019-02-27T08:55:27.121Z,26.52
2019-02-27T08:57:56.850Z,25.43
2019-02-27T09:00:28.518Z,24.50
2019-02-27T09:03:02.442Z,25.37
2019-02-27T09:05:28.932Z,25.27
2019-02-27T09:07:57.527Z,24.77
2019-02-27T09:13:04.881Z,24.95
2019-02-27T09:15:27.050Z,26.70
2019-02-27T09:17:59.133Z,25.35
2019-02-27T09:22:56.487Z,25.02
2019-02-27T09:25:25.074Z,26.12
2019-02-27T09:27:53.657Z,25.62
2019-02-27T09:30:28.821Z,24.37
2019-02-27T09:32:54.277Z,25.45
2019-02-27T09:35:24.633Z,24.47
2019-02-27T09:37:53.106Z,24.55
2019-02-27T09:40:29.869Z,24.02
2019-02-27T09:42:58.517Z,24.87
2019-02-27T09:45:35.006Z,25.05
2019-02-27T09:48:05.372Z,23.47
2019-02-27T09:50:41.544Z,23.05
2019-02-27T09:53:10.253Z,23.55
2019-02-27T09:55:38.918Z,22.67
2019-02-27T09:58:12.795Z,21.37
2019-02-27T10:00:46.912Z,22.87
2019-02-27T10:03:21.102Z,21.75
2019-02-27T10:05:50.556Z,21.15
2019-02-27T10:08:25.379Z,20.92
2019-02-27T10:10:53.003Z,19.73
2019-02-27T10:13:23.545Z,20.40
2019-02-27T10:15:52.149Z,20.43
2019-02-27T10:18:22.066Z,19.42
2019-02-27T10:20:51.780Z,19.85
2019-02-27T10:23:21.617Z,18.92
2019-02-27T10:25:50.184Z,17.80
2019-02-27T10:28:18.659Z,18.67
2019-02-27T10:30:49.940Z,19.65
2019-02-27T10:33:17.500Z,17.23
2019-02-27T10:35:46.044Z,17.30
2019-02-27T10:38:16.214Z,17.90
2019-02-27T10:40:46.055Z,18.10
2019-02-27T10:43:14.883Z,17.50
2019-02-27T10:45:48.231Z,16.37
2019-02-27T10:48:13.579Z,15.13
2019-02-27T10:50:42.110Z,15.83
2019-02-27T10:53:10.639Z,15.85
2019-02-27T10:55:39.180Z,15.80
2019-02-27T10:58:07.829Z,15.45
2019-02-27T11:00:38.475Z,11.57
2019-02-27T11:03:07.036Z,11.60
2019-02-27T11:05:37.999Z,12.13
2019-02-27T11:08:06.538Z,12.18
2019-02-27T11:10:35.080Z,11.97
2019-02-27T11:13:06.784Z,12.20
2019-02-27T11:15:33.799Z,11.83
2019-02-27T11:18:05.403Z,11.12
2019-02-27T11:20:32.849Z,11.93
2019-02-27T11:23:01.316Z,12.40
2019-02-27T11:25:30.937Z,12.70
2019-02-27T11:27:59.539Z,13.25
2019-02-27T11:30:39.383Z,12.35
2019-02-27T11:33:09.611Z,12.63
2019-02-27T11:35:38.174Z,13.05
2019-02-27T11:38:07.094Z,13.85
2019-02-27T11:40:35.896Z,12.73
2019-02-27T11:43:06.998Z,13.53
2019-02-27T11:45:35.504Z,13.48
2019-02-27T11:48:05.321Z,13.50
2019-02-27T11:50:34.020Z,12.82
2019-02-27T11:53:03.044Z,13.48
2019-02-27T11:55:32.000Z,13.30
2019-02-27T11:58:04.580Z,12.45
2019-02-27T12:00:31.520Z,13.58
2019-02-27T12:03:00.018Z,12.63
2019-02-27T12:05:33.912Z,13.03
2019-02-27T12:07:59.095Z,13.13
2019-02-27T12:10:31.743Z,13.60
2019-02-27T12:13:01.367Z,13.17
2019-02-27T12:15:30.580Z,12.00
2019-02-27T12:18:00.761Z,12.03
2019-02-27T12:20:31.168Z,13.13
2019-02-27T12:22:59.694Z,12.53
2019-02-27T12:25:30.105Z,11.78
2019-02-27T12:27:58.634Z,12.15
2019-02-27T12:30:29.486Z,12.05
2019-02-27T12:32:58.058Z,11.90
2019-02-27T12:35:31.639Z,12.33
2019-02-27T12:38:00.246Z,12.95
2019-02-27T12:40:28.889Z,11.70
2019-02-27T12:42:57.561Z,13.45
2019-02-27T12:45:32.216Z,12.95
2019-02-27T12:48:00.820Z,12.80
2019-02-27T12:50:34.813Z,13.32
2019-02-27T12:53:03.482Z,13.40
2019-02-27T12:55:35.418Z,13.35
2019-02-27T12:58:02.207Z,13.93
2019-02-27T13:00:32.836Z,13.30
2019-02-27T13:03:01.311Z,13.88
2019-02-27T13:05:30.126Z,13.20
2019-02-27T13:08:00.191Z,13.68
2019-02-27T13:10:33.000Z,13.53
2019-02-27T13:12:59.463Z,13.03
2019-02-27T13:15:29.830Z,12.60
2019-02-27T13:17:58.336Z,13.00
2019-02-27T13:20:34.809Z,13.10
2019-02-27T13:23:05.071Z,13.50
2019-02-27T13:25:33.603Z,13.30
2019-02-27T13:28:02.259Z,13.62
2019-02-27T13:30:32.423Z,14.60
2019-02-27T13:33:02.005Z,13.58
2019-02-27T13:35:30.925Z,12.97
2019-02-27T13:37:59.553Z,13.98
2019-02-27T13:40:34.918Z,14.70
2019-02-27T13:43:01.189Z,15.63
2019-02-27T13:45:31.726Z,15.50
2019-02-27T13:48:05.003Z,15.43
2019-02-27T13:50:30.683Z,15.90
2019-02-27T13:52:59.269Z,16.27
2019-02-27T13:55:27.823Z,17.23
2019-02-27T13:57:58.825Z,17.62
2019-02-27T14:00:37.602Z,18.25
2019-02-27T14:03:06.271Z,17.15
2019-02-27T14:05:36.107Z,18.00
2019-02-27T14:08:05.186Z,17.85
2019-02-27T14:10:35.579Z,17.62
2019-02-27T14:13:08.895Z,17.95
2019-02-27T14:15:38.362Z,18.75
2019-02-27T14:18:06.895Z,17.35
2019-02-27T14:20:35.359Z,17.05
2019-02-27T14:23:04.695Z,16.52
2019-02-27T14:25:34.208Z,17.98
2019-02-27T14:28:02.719Z,17.05
2019-02-27T14:30:48.960Z,17.55
2019-02-27T14:33:19.347Z,17.30
2019-02-27T14:35:47.744Z,17.73
2019-02-27T14:38:21.774Z,17.57
2019-02-27T14:40:52.922Z,18.12
2019-02-27T14:43:26.872Z,18.07
2019-02-27T14:45:53.369Z,17.57
2019-02-27T14:48:22.297Z,17.35
2019-02-27T14:50:50.776Z,18.45
2019-02-27T14:53:19.870Z,16.75
2019-02-27T14:55:48.498Z,16.30
2019-02-27T14:58:17.013Z,14.63
2019-02-27T15:00:45.569Z,14.47
2019-02-27T15:03:14.032Z,14.20
2019-02-27T15:05:44.750Z,16.17
2019-02-27T15:08:12.834Z,17.05
2019-02-27T15:10:41.409Z,15.13
2019-02-27T15:13:09.964Z,14.95
2019-02-27T15:15:43.156Z,16.02
2019-02-27T15:18:13.962Z,15.30
2019-02-27T15:20:41.214Z,14.70
2019-02-27T15:23:10.796Z,15.05
2019-02-27T15:25:43.142Z,14.95
2019-02-27T15:28:09.642Z,14.83
2019-02-27T15:30:39.843Z,15.63
2019-02-27T15:33:08.299Z,15.78
2019-02-27T15:35:36.804Z,15.88
2019-02-27T15:38:05.428Z,15.72
2019-02-27T15:40:35.655Z,15.45
2019-02-27T15:43:11.003Z,15.38
2019-02-27T15:45:35.043Z,16.73
2019-02-27T15:48:06.627Z,15.63
2019-02-27T15:50:35.575Z,16.53
2019-02-27T15:53:05.056Z,18.07
2019-02-27T15:55:35.264Z,18.37
2019-02-27T15:58:05.086Z,16.62
2019-02-27T16:00:34.194Z,15.90
2019-02-27T16:03:02.716Z,16.52
2019-02-27T16:05:31.727Z,17.15
2019-02-27T16:08:00.475Z,17.42
2019-02-27T16:10:29.563Z,17.80
2019-02-27T16:13:00.941Z,17.75
2019-02-27T16:15:32.205Z,16.80
2019-02-27T16:18:04.420Z,18.60
2019-02-27T16:20:31.859Z,25.72
2019-02-27T16:23:05.143Z,20.25
2019-02-27T16:25:32.807Z,20.35
2019-02-27T16:28:01.353Z,20.52
2019-02-27T16:30:37.127Z,21.60
2019-02-27T16:33:07.049Z,19.85
2019-02-27T16:35:41.596Z,18.73
2019-02-27T16:38:07.496Z,18.60
2019-02-27T16:40:36.821Z,19.37
2019-02-27T16:43:06.918Z,19.40
2019-02-27T16:45:38.325Z,19.52
2019-02-27T16:48:11.109Z,19.70
2019-02-27T16:50:39.323Z,20.27
2019-02-27T16:53:16.214Z,20.40
2019-02-27T16:55:41.379Z,20.50
2019-02-27T16:58:09.959Z,20.27
2019-02-27T17:00:39.204Z,20.75
2019-02-27T17:03:13.087Z,22.95
2019-02-27T17:05:43.034Z,21.97
2019-02-27T17:08:10.987Z,19.77
2019-02-27T17:10:40.227Z,21.03
2019-02-27T17:13:14.626Z,21.82
2019-02-27T17:15:41.488Z,20.77
2019-02-27T17:18:12.771Z,21.45
2019-02-27T17:20:45.761Z,20.45
2019-02-27T17:23:11.826Z,20.27
2019-02-27T17:25:40.313Z,21.20
2019-02-27T17:28:08.780Z,20.95
2019-02-27T17:30:38.275Z,21.68
2019-02-27T17:33:07.225Z,21.50
2019-02-27T17:35:35.688Z,26.82
2019-02-27T17:38:05.006Z,24.43
2019-02-27T17:40:36.504Z,22.10
2019-02-27T17:43:03.716Z,20.27
2019-02-27T17:45:32.282Z,21.77
2019-02-27T17:48:00.817Z,21.80
2019-02-27T17:50:31.815Z,26.25
2019-02-27T17:52:59.855Z,21.52
2019-02-27T17:55:28.356Z,30.10
2019-02-27T17:57:58.354Z,26.02
2019-02-27T18:00:32.735Z,22.33
2019-02-27T18:03:01.207Z,21.80
2019-02-27T18:05:29.736Z,22.73
2019-02-27T18:07:58.235Z,23.07
2019-02-27T18:10:26.748Z,23.30
2019-02-27T18:12:55.237Z,23.62
2019-02-27T18:15:25.131Z,22.52
2019-02-27T18:17:53.644Z,23.05
2019-02-27T18:20:25.501Z,23.85
2019-02-27T18:22:54.826Z,23.10
2019-02-27T18:25:23.441Z,23.57
2019-02-27T18:27:51.901Z,22.30
2019-02-27T18:30:24.610Z,23.92
2019-02-27T18:32:53.213Z,22.00
2019-02-27T18:35:21.733Z,23.90
2019-02-27T18:37:53.613Z,24.45
2019-02-27T18:40:20.982Z,24.02
2019-02-27T18:42:55.167Z,26.20
2019-02-27T18:45:22.907Z,25.57
2019-02-27T18:47:51.429Z,24.90
2019-02-27T18:50:19.950Z,26.57
2019-02-27T18:52:49.747Z,25.92
2019-02-27T18:55:18.285Z,26.80
2019-02-27T18:57:47.606Z,27.35
2019-02-27T19:00:20.186Z,28.83
2019-02-27T19:02:51.935Z,28.87
2019-02-27T19:05:19.806Z,27.65
2019-02-27T19:07:48.339Z,30.08
2019-02-27T19:10:17.251Z,27.00
2019-02-27T19:12:45.853Z,27.60
2019-02-27T19:15:19.522Z,28.32
2019-02-27T19:17:48.089Z,28.23
2019-02-27T19:20:25.250Z,29.18
2019-02-27T19:22:53.922Z,30.05
2019-02-27T19:25:22.537Z,29.98
2019-02-27T19:27:51.079Z,28.95
2019-02-27T19:30:19.770Z,31.23
2019-02-27T19:32:49.163Z,30.27
2019-02-27T19:35:21.175Z,29.87
2019-02-27T19:37:48.298Z,31.33
2019-02-27T19:40:23.497Z,31.20
2019-02-27T19:42:57.975Z,30.82
2019-02-27T19:45:26.788Z,32.25
2019-02-27T19:47:55.925Z,32.73
2019-02-27T19:50:25.638Z,31.60
2019-02-27T19:52:54.230Z,32.28
2019-02-27T19:55:26.455Z,37.37
2019-02-27T19:57:53.212Z,33.30
2019-02-27T20:00:35.047Z,32.35
2019-02-27T20:03:03.348Z,31.40
2019-02-27T20:05:31.948Z,32.48
2019-02-27T20:08:02.362Z,33.40
2019-02-27T20:10:36.215Z,33.40
2019-02-27T20:13:06.863Z,33.50
2019-02-27T20:15:35.124Z,33.75
2019-02-27T20:18:07.884Z,33.18
2019-02-27T20:20:40.100Z,34.45
2019-02-27T20:23:06.143Z,33.40
2019-02-27T20:25:34.688Z,35.13
2019-02-27T20:28:04.636Z,35.68
2019-02-27T20:30:33.184Z,34.92
2019-02-27T20:33:02.522Z,34.05
2019-02-27T20:35:32.300Z,35.52
2019-02-27T20:38:01.625Z,34.70
2019-02-27T20:40:33.770Z,34.73
2019-02-27T20:43:01.739Z,35.17
2019-02-27T20:45:31.875Z,37.15
2019-02-27T20:48:01.968Z,34.20
2019-02-27T20:50:36.679Z,35.73
2019-02-27T20:53:06.583Z,37.03
2019-02-27T20:55:35.059Z,35.92
2019-02-27T20:58:04.739Z,36.13
2019-02-27T21:00:35.755Z,36.65
2019-02-27T21:03:03.484Z,38.35
2019-02-27T21:05:33.587Z,38.35
2019-02-27T21:08:02.646Z,38.73
2019-02-27T21:10:33.444Z,36.58
2019-02-27T21:13:02.052Z,37.83
2019-02-27T21:15:34.072Z,40.78
2019-02-27T21:18:02.599Z,37.90
2019-02-27T21:20:33.089Z,37.35
2019-02-27T21:23:01.612Z,39.58
2019-02-27T21:25:30.085Z,37.98
2019-02-27T21:27:58.558Z,39.75
2019-02-27T21:30:27.253Z,39.05
2019-02-27T21:32:56.575Z,36.48
2019-02-27T21:35:29.776Z,39.88
2019-02-27T21:37:56.999Z,37.28
2019-02-27T21:40:25.451Z,38.35
2019-02-27T21:42:53.896Z,38.35
2019-02-27T21:45:27.259Z,38.23
2019-02-27T21:47:55.698Z,38.02
2019-02-27T21:50:25.544Z,39.20
2019-02-27T21:52:54.822Z,36.23
2019-02-27T21:55:24.750Z,38.23
2019-02-27T21:57:53.518Z,39.00
2019-02-27T22:00:28.255Z,38.65
2019-02-27T22:02:58.055Z,37.13
2019-02-27T22:05:26.740Z,36.90
2019-02-27T22:07:55.357Z,38.28
2019-02-27T22:10:23.946Z,39.70
2019-02-27T22:12:52.460Z,39.23
2019-02-27T22:15:29.947Z,37.20
2019-02-27T22:17:58.627Z,37.83
2019-02-27T22:20:27.145Z,38.98
2019-02-27T22:22:55.749Z,37.28
2019-02-27T22:25:30.007Z,39.67
2019-02-27T22:27:55.325Z,40.35
2019-02-27T22:30:24.462Z,39.75
2019-02-27T22:32:53.065Z,37.00
2019-02-27T22:35:21.591Z,38.63
2019-02-27T22:37:52.401Z,36.98
2019-02-27T22:40:22.142Z,38.60
2019-02-27T22:42:50.734Z,37.55
2019-02-27T22:45:20.462Z,39.00
2019-02-27T22:47:50.068Z,39.48
2019-02-27T22:50:23.612Z,39.83
2019-02-27T22:52:54.756Z,38.42
2019-02-27T22:55:22.573Z,39.15
2019-02-27T22:57:51.098Z,39.58
2019-02-27T23:00:28.024Z,40.35
2019-02-27T23:02:57.153Z,38.83
2019-02-27T23:05:28.060Z,38.90
2019-02-27T23:07:57.855Z,40.75
2019-02-27T23:10:28.142Z,38.78
2019-02-27T23:12:58.572Z,40.30
2019-02-27T23:15:29.476Z,38.98
2019-02-27T23:17:58.698Z,39.98
2019-02-27T23:20:27.218Z,38.65
2019-02-27T23:22:55.715Z,39.75
2019-02-27T23:25:24.252Z,39.08
2019-02-27T23:27:57.606Z,40.88
2019-02-27T23:30:25.680Z,41.30
2019-02-27T23:32:59.352Z,38.10
2019-02-27T23:35:29.311Z,40.57
2019-02-27T23:38:03.097Z,40.20
2019-02-27T23:40:29.343Z,39.88
2019-02-27T23:43:02.343Z,40.33
2019-02-27T23:45:28.117Z,39.95
2019-02-27T23:47:59.279Z,40.00
2019-02-27T23:50:30.620Z,39.03
2019-02-27T23:52:59.077Z,39.88
2019-02-27T23:55:27.543Z,39.70
2019-02-27T23:57:57.947Z,39.67
